sensor_id;sensor_type;location;lat;lon;timestamp;pressure;altitude;pressure_sealevel;temperature;humidity
4469;BME280;2247;42.666;23.292;2023-05-16T00:00:46;94095.28;;;16.55;74.58
4469;BME280;2247;42.666;23.292;2023-05-16T00:03:13;94089.81;;;16.43;74.76
4469;BME280;2247;42.666;23.292;2023-05-16T00:05:40;94088.25;;;16.33;75.11
4469;BME280;2247;42.666;23.292;2023-05-16T00:08:07;94088.59;;;16.32;75.14
4469;BME280;2247;42.666;23.292;2023-05-16T00:10:33;94090.00;;;16.29;75.34
4469;BME280;2247;42.666;23.292;2023-05-16T00:13:02;94085.75;;;16.28;75.76
4469;BME280;2247;42.666;23.292;2023-05-16T00:15:29;94073.25;;;16.29;75.61
4469;BME280;2247;42.666;23.292;2023-05-16T00:17:56;94073.09;;;16.34;75.61
4469;BME280;2247;42.666;23.292;2023-05-16T00:20:24;94075.25;;;16.40;75.58
4469;BME280;2247;42.666;23.292;2023-05-16T00:22:52;94082.63;;;16.52;74.83
4469;BME280;2247;42.666;23.292;2023-05-16T00:25:19;94076.53;;;16.51;74.90
4469;BME280;2247;42.666;23.292;2023-05-16T00:27:46;94070.56;;;16.54;74.63
4469;BME280;2247;42.666;23.292;2023-05-16T00:30:14;94082.16;;;16.50;74.68
4469;BME280;2247;42.666;23.292;2023-05-16T00:32:41;94070.72;;;16.49;74.54
4469;BME280;2247;42.666;23.292;2023-05-16T00:35:08;94066.66;;;16.52;74.60
4469;BME280;2247;42.666;23.292;2023-05-16T00:37:36;94056.16;;;16.47;74.62
4469;BME280;2247;42.666;23.292;2023-05-16T00:40:03;94048.97;;;16.39;74.90
4469;BME280;2247;42.666;23.292;2023-05-16T00:42:30;94051.50;;;16.35;75.02
4469;BME280;2247;42.666;23.292;2023-05-16T00:44:57;94047.59;;;16.33;75.09
4469;BME280;2247;42.666;23.292;2023-05-16T00:47:25;94042.91;;;16.30;75.22
4469;BME280;2247;42.666;23.292;2023-05-16T00:49:52;94039.94;;;16.23;75.78
4469;BME280;2247;42.666;23.292;2023-05-16T00:52:19;94032.28;;;16.21;76.05
4469;BME280;2247;42.666;23.292;2023-05-16T00:54:46;94036.31;;;16.19;75.97
4469;BME280;2247;42.666;23.292;2023-05-16T00:57:13;94029.94;;;16.11;76.12
4469;BME280;2247;42.666;23.292;2023-05-16T00:59:40;93991.31;;;15.79;76.70
4469;BME280;2247;42.666;23.292;2023-05-16T01:02:08;94035.25;;;16.02;76.88
4469;BME280;2247;42.666;23.292;2023-05-16T01:04:36;94033.69;;;16.01;76.92
4469;BME280;2247;42.666;23.292;2023-05-16T01:07:04;94026.50;;;16.02;76.84
4469;BME280;2247;42.666;23.292;2023-05-16T01:09:31;94040.09;;;16.00;77.18
4469;BME280;2247;42.666;23.292;2023-05-16T01:12:03;94039.47;;;16.03;77.06
4469;BME280;2247;42.666;23.292;2023-05-16T01:14:38;94029.78;;;15.99;76.92
4469;BME280;2247;42.666;23.292;2023-05-16T01:17:19;94035.72;;;16.04;77.15
4469;BME280;2247;42.666;23.292;2023-05-16T01:19:59;94019.75;;;16.04;77.42
4469;BME280;2247;42.666;23.292;2023-05-16T01:22:36;94027.91;;;16.08;77.22
4469;BME280;2247;42.666;23.292;2023-05-16T01:25:16;94019.59;;;16.18;77.02
4469;BME280;2247;42.666;23.292;2023-05-16T01:27:48;94018.19;;;16.29;76.33
4469;BME280;2247;42.666;23.292;2023-05-16T01:30:18;94017.88;;;16.31;76.34
4469;BME280;2247;42.666;23.292;2023-05-16T01:32:45;94015.06;;;16.27;76.19
4469;BME280;2247;42.666;23.292;2023-05-16T01:35:14;94007.72;;;16.24;76.25
4469;BME280;2247;42.666;23.292;2023-05-16T01:37:47;93998.31;;;16.35;76.20
4469;BME280;2247;42.666;23.292;2023-05-16T01:40:20;93990.81;;;16.29;76.12
4469;BME280;2247;42.666;23.292;2023-05-16T01:42:53;93998.19;;;16.32;76.16
4469;BME280;2247;42.666;23.292;2023-05-16T01:45:25;93999.72;;;16.33;76.38
4469;BME280;2247;42.666;23.292;2023-05-16T01:48:09;93996.28;;;16.32;75.88
4469;BME280;2247;42.666;23.292;2023-05-16T01:50:42;93990.50;;;16.30;75.98
4469;BME280;2247;42.666;23.292;2023-05-16T01:53:14;93991.44;;;16.34;75.95
4469;BME280;2247;42.666;23.292;2023-05-16T01:55:44;93993.91;;;16.39;75.92
4469;BME280;2247;42.666;23.292;2023-05-16T01:58:14;93988.09;;;16.46;75.75
4469;BME280;2247;42.666;23.292;2023-05-16T02:00:41;93987.66;;;16.44;75.84
4469;BME280;2247;42.666;23.292;2023-05-16T02:03:09;93981.56;;;16.43;75.60
4469;BME280;2247;42.666;23.292;2023-05-16T02:05:36;93981.41;;;16.40;75.71
4469;BME280;2247;42.666;23.292;2023-05-16T02:08:03;93995.53;;;16.32;75.94
4469;BME280;2247;42.666;23.292;2023-05-16T02:10:30;93983.44;;;16.34;75.72
4469;BME280;2247;42.666;23.292;2023-05-16T02:12:57;93983.91;;;16.36;75.92
4469;BME280;2247;42.666;23.292;2023-05-16T02:15:25;93974.06;;;16.37;75.66
4469;BME280;2247;42.666;23.292;2023-05-16T02:17:53;93972.97;;;16.38;75.82
4469;BME280;2247;42.666;23.292;2023-05-16T02:20:20;93970.13;;;16.43;75.75
4469;BME280;2247;42.666;23.292;2023-05-16T02:22:47;93977.03;;;16.44;75.57
4469;BME280;2247;42.666;23.292;2023-05-16T02:25:14;93963.72;;;16.44;75.39
4469;BME280;2247;42.666;23.292;2023-05-16T02:27:41;93965.13;;;16.41;75.48
4469;BME280;2247;42.666;23.292;2023-05-16T02:30:09;93970.13;;;16.43;75.30
4469;BME280;2247;42.666;23.292;2023-05-16T02:32:37;93951.06;;;16.32;75.61
4469;BME280;2247;42.666;23.292;2023-05-16T02:35:05;93974.50;;;16.47;75.15
4469;BME280;2247;42.666;23.292;2023-05-16T02:37:32;93977.94;;;16.48;75.49
4469;BME280;2247;42.666;23.292;2023-05-16T02:39:59;93987.00;;;16.47;75.15
4469;BME280;2247;42.666;23.292;2023-05-16T02:42:26;93990.75;;;16.46;75.46
4469;BME280;2247;42.666;23.292;2023-05-16T02:44:54;93984.22;;;16.43;75.49
4469;BME280;2247;42.666;23.292;2023-05-16T02:47:21;93983.44;;;16.43;75.53
4469;BME280;2247;42.666;23.292;2023-05-16T02:49:49;93978.75;;;16.40;75.83
4469;BME280;2247;42.666;23.292;2023-05-16T02:52:17;93971.09;;;16.38;75.72
4469;BME280;2247;42.666;23.292;2023-05-16T02:54:44;93967.19;;;16.36;75.61
4469;BME280;2247;42.666;23.292;2023-05-16T02:57:11;93960.47;;;16.38;75.82
4469;BME280;2247;42.666;23.292;2023-05-16T02:59:38;93964.53;;;16.36;75.97
4469;BME280;2247;42.666;23.292;2023-05-16T03:02:05;93966.53;;;16.39;76.03
4469;BME280;2247;42.666;23.292;2023-05-16T03:04:32;93968.75;;;16.37;75.66
4469;BME280;2247;42.666;23.292;2023-05-16T03:07:01;93952.47;;;16.38;75.85
4469;BME280;2247;42.666;23.292;2023-05-16T03:09:28;93964.34;;;16.41;75.56
4469;BME280;2247;42.666;23.292;2023-05-16T03:11:54;93964.22;;;16.37;75.79
4469;BME280;2247;42.666;23.292;2023-05-16T03:14:21;93960.78;;;16.37;75.58
4469;BME280;2247;42.666;23.292;2023-05-16T03:16:48;93966.09;;;16.37;75.87
4469;BME280;2247;42.666;23.292;2023-05-16T03:19:16;93963.44;;;16.37;75.73
4469;BME280;2247;42.666;23.292;2023-05-16T03:21:42;93970.63;;;16.45;75.72
4469;BME280;2247;42.666;23.292;2023-05-16T03:24:11;93956.84;;;16.43;75.21
4469;BME280;2247;42.666;23.292;2023-05-16T03:26:38;93965.13;;;16.41;75.55
4469;BME280;2247;42.666;23.292;2023-05-16T03:29:05;93955.75;;;16.44;75.19
4469;BME280;2247;42.666;23.292;2023-05-16T03:31:32;93956.84;;;16.43;75.46
4469;BME280;2247;42.666;23.292;2023-05-16T03:33:59;93952.00;;;16.45;75.32
4469;BME280;2247;42.666;23.292;2023-05-16T03:36:25;93959.69;;;16.38;75.60
4469;BME280;2247;42.666;23.292;2023-05-16T03:38:52;93963.88;;;16.39;75.79
4469;BME280;2247;42.666;23.292;2023-05-16T03:41:21;93964.34;;;16.41;75.53
4469;BME280;2247;42.666;23.292;2023-05-16T03:43:48;93954.81;;;16.40;75.36
4469;BME280;2247;42.666;23.292;2023-05-16T03:46:14;93951.84;;;16.41;75.60
4469;BME280;2247;42.666;23.292;2023-05-16T03:48:41;93954.81;;;16.40;75.78
4469;BME280;2247;42.666;23.292;2023-05-16T03:51:08;93951.69;;;16.38;75.66
4469;BME280;2247;42.666;23.292;2023-05-16T03:53:36;93947.59;;;16.40;75.77
4469;BME280;2247;42.666;23.292;2023-05-16T03:56:03;93955.13;;;16.38;75.89
4469;BME280;2247;42.666;23.292;2023-05-16T03:58:31;93959.69;;;16.38;75.81
4469;BME280;2247;42.666;23.292;2023-05-16T04:00:58;93958.22;;;16.49;75.28
4469;BME280;2247;42.666;23.292;2023-05-16T04:03:25;93952.59;;;16.50;75.43
4469;BME280;2247;42.666;23.292;2023-05-16T04:05:54;93948.38;;;16.49;75.51
4469;BME280;2247;42.666;23.292;2023-05-16T04:08:21;93950.88;;;16.46;74.82
4469;BME280;2247;42.666;23.292;2023-05-16T04:10:49;93942.78;;;16.34;75.03
4469;BME280;2247;42.666;23.292;2023-05-16T04:13:16;93956.66;;;16.48;74.81
4469;BME280;2247;42.666;23.292;2023-05-16T04:15:44;93958.53;;;16.47;74.90
4469;BME280;2247;42.666;23.292;2023-05-16T04:18:12;93931.22;;;16.30;75.04
4469;BME280;2247;42.666;23.292;2023-05-16T04:20:38;93960.75;;;16.45;75.41
4469;BME280;2247;42.666;23.292;2023-05-16T04:23:08;93961.97;;;16.48;75.27
4469;BME280;2247;42.666;23.292;2023-05-16T04:25:36;93961.66;;;16.49;75.50
4469;BME280;2247;42.666;23.292;2023-05-16T04:28:04;93957.25;;;16.53;74.90
4469;BME280;2247;42.666;23.292;2023-05-16T04:30:31;93958.50;;;16.56;74.93
4469;BME280;2247;42.666;23.292;2023-05-16T04:32:59;93941.78;;;16.47;74.66
4469;BME280;2247;42.666;23.292;2023-05-16T04:35:27;93944.75;;;16.63;74.74
4469;BME280;2247;42.666;23.292;2023-05-16T04:37:53;93931.31;;;16.50;74.96
4469;BME280;2247;42.666;23.292;2023-05-16T04:40:21;93952.72;;;16.63;74.62
4469;BME280;2247;42.666;23.292;2023-05-16T04:42:49;93946.78;;;16.57;74.88
4469;BME280;2247;42.666;23.292;2023-05-16T04:45:19;93945.34;;;16.60;74.82
4469;BME280;2247;42.666;23.292;2023-05-16T04:47:47;93939.75;;;16.61;74.69
4469;BME280;2247;42.666;23.292;2023-05-16T04:50:18;93931.81;;;16.44;74.84
4469;BME280;2247;42.666;23.292;2023-05-16T04:52:46;93948.06;;;16.51;75.19
4469;BME280;2247;42.666;23.292;2023-05-16T04:55:14;93941.34;;;16.45;75.50
4469;BME280;2247;42.666;23.292;2023-05-16T04:57:42;93953.22;;;16.47;75.49
4469;BME280;2247;42.666;23.292;2023-05-16T05:00:10;93943.19;;;16.53;74.89
4469;BME280;2247;42.666;23.292;2023-05-16T05:02:37;93939.13;;;16.55;74.90
4469;BME280;2247;42.666;23.292;2023-05-16T05:05:06;93941.00;;;16.55;75.27
4469;BME280;2247;42.666;23.292;2023-05-16T05:07:34;93946.31;;;16.55;75.43
4469;BME280;2247;42.666;23.292;2023-05-16T05:10:02;93922.88;;;16.40;75.03
4469;BME280;2247;42.666;23.292;2023-05-16T05:12:31;93954.78;;;16.66;75.00
4469;BME280;2247;42.666;23.292;2023-05-16T05:14:58;93956.31;;;16.67;74.81
4469;BME280;2247;42.666;23.292;2023-05-16T05:17:26;93948.97;;;16.64;74.89
4469;BME280;2247;42.666;23.292;2023-05-16T05:19:54;93944.75;;;16.63;74.97
4469;BME280;2247;42.666;23.292;2023-05-16T05:22:20;93947.41;;;16.63;75.14
4469;BME280;2247;42.666;23.292;2023-05-16T05:24:49;93932.69;;;16.57;75.11
4469;BME280;2247;42.666;23.292;2023-05-16T05:27:16;93947.38;;;16.71;74.61
4469;BME280;2247;42.666;23.292;2023-05-16T05:29:43;93945.53;;;16.63;74.46
4469;BME280;2247;42.666;23.292;2023-05-16T05:32:10;93932.53;;;16.53;74.27
4469;BME280;2247;42.666;23.292;2023-05-16T05:34:38;93932.25;;;16.46;74.07
4469;BME280;2247;42.666;23.292;2023-05-16T05:37:05;93949.66;;;16.35;73.68
4469;BME280;2247;42.666;23.292;2023-05-16T05:39:32;93926.69;;;16.30;73.43
4469;BME280;2247;42.666;23.292;2023-05-16T05:42:02;93924.03;;;16.22;74.08
4469;BME280;2247;42.666;23.292;2023-05-16T05:44:31;93904.84;;;15.99;74.08
4469;BME280;2247;42.666;23.292;2023-05-16T05:46:59;93927.81;;;16.12;74.63
4469;BME280;2247;42.666;23.292;2023-05-16T05:49:26;93903.16;;;15.94;74.97
4469;BME280;2247;42.666;23.292;2023-05-16T05:51:57;93895.81;;;15.91;75.00
4469;BME280;2247;42.666;23.292;2023-05-16T05:54:25;93936.25;;;16.14;74.90
4469;BME280;2247;42.666;23.292;2023-05-16T05:56:56;93913.28;;;16.09;75.00
4469;BME280;2247;42.666;23.292;2023-05-16T05:59:25;93897.66;;;16.08;74.86
4469;BME280;2247;42.666;23.292;2023-05-16T06:01:53;93901.41;;;16.07;75.05
4469;BME280;2247;42.666;23.292;2023-05-16T06:04:23;93912.81;;;16.07;75.23
4469;BME280;2247;42.666;23.292;2023-05-16T06:06:50;93905.75;;;16.11;74.76
4469;BME280;2247;42.666;23.292;2023-05-16T06:09:18;93935.31;;;16.19;74.41
4469;BME280;2247;42.666;23.292;2023-05-16T06:11:45;93910.56;;;16.27;74.44
4469;BME280;2247;42.666;23.292;2023-05-16T06:14:13;93908.22;;;16.25;74.06
4469;BME280;2247;42.666;23.292;2023-05-16T06:16:42;93898.91;;;16.10;74.25
4469;BME280;2247;42.666;23.292;2023-05-16T06:19:09;93923.28;;;16.12;74.18
4469;BME280;2247;42.666;23.292;2023-05-16T06:21:40;93950.63;;;16.22;74.51
4469;BME280;2247;42.666;23.292;2023-05-16T06:24:08;93925.31;;;16.15;74.35
4469;BME280;2247;42.666;23.292;2023-05-16T06:26:36;93920.63;;;16.12;74.06
4469;BME280;2247;42.666;23.292;2023-05-16T06:29:03;93925.16;;;16.12;74.17
4469;BME280;2247;42.666;23.292;2023-05-16T06:31:30;93922.34;;;16.17;74.31
4469;BME280;2247;42.666;23.292;2023-05-16T06:33:59;93946.72;;;16.19;74.09
4469;BME280;2247;42.666;23.292;2023-05-16T06:36:26;93966.91;;;16.11;73.85
4469;BME280;2247;42.666;23.292;2023-05-16T06:38:55;93895.28;;;16.24;73.54
4469;BME280;2247;42.666;23.292;2023-05-16T06:41:23;93902.91;;;16.25;73.35
4469;BME280;2247;42.666;23.292;2023-05-16T06:43:51;93900.13;;;16.22;73.57
4469;BME280;2247;42.666;23.292;2023-05-16T06:46:19;93939.38;;;16.25;73.64
4469;BME280;2247;42.666;23.292;2023-05-16T06:48:48;93893.91;;;16.09;73.19
4469;BME280;2247;42.666;23.292;2023-05-16T06:51:32;93866.03;;;16.24;72.91
4469;BME280;2247;42.666;23.292;2023-05-16T06:54:03;93887.13;;;16.29;72.34
4469;BME280;2247;42.666;23.292;2023-05-16T06:56:30;93909.66;;;16.23;72.03
4469;BME280;2247;42.666;23.292;2023-05-16T06:58:57;93867.69;;;16.37;71.77
4469;BME280;2247;42.666;23.292;2023-05-16T07:01:28;93861.41;;;16.41;71.39
4469;BME280;2247;42.666;23.292;2023-05-16T07:04:00;93885.63;;;16.48;70.96
4469;BME280;2247;42.666;23.292;2023-05-16T07:06:38;93891.09;;;16.52;70.79
4469;BME280;2247;42.666;23.292;2023-05-16T07:09:12;93864.38;;;16.40;70.68
4469;BME280;2247;42.666;23.292;2023-05-16T07:11:41;93860.72;;;16.53;70.53
4469;BME280;2247;42.666;23.292;2023-05-16T07:14:11;93924.25;;;16.63;71.13
4469;BME280;2247;42.666;23.292;2023-05-16T07:16:39;93880.91;;;16.63;70.92
4469;BME280;2247;42.666;23.292;2023-05-16T07:19:13;93853.72;;;16.48;70.98
4469;BME280;2247;42.666;23.292;2023-05-16T07:29:46;93821.47;;;16.50;72.53
4469;BME280;2247;42.666;23.292;2023-05-16T07:32:25;93819.91;;;16.49;72.50
4469;BME280;2247;42.666;23.292;2023-05-16T07:34:57;93855.72;;;16.60;72.74
4469;BME280;2247;42.666;23.292;2023-05-16T07:37:38;93843.03;;;16.66;72.31
4469;BME280;2247;42.666;23.292;2023-05-16T07:40:18;93844.75;;;16.53;72.24
4469;BME280;2247;42.666;23.292;2023-05-16T07:45:52;93868.78;;;16.74;71.52
4469;BME280;2247;42.666;23.292;2023-05-16T07:48:24;93865.28;;;16.82;71.19
4469;BME280;2247;42.666;23.292;2023-05-16T07:51:01;93854.34;;;16.83;70.66
4469;BME280;2247;42.666;23.292;2023-05-16T07:53:43;93855.75;;;16.81;70.09
4469;BME280;2247;42.666;23.292;2023-05-16T07:56:24;93867.16;;;16.81;70.42
4469;BME280;2247;42.666;23.292;2023-05-16T07:59:00;93839.00;;;16.80;70.15
4469;BME280;2247;42.666;23.292;2023-05-16T08:01:49;93842.84;;;16.91;70.01
4469;BME280;2247;42.666;23.292;2023-05-16T08:04:18;93829.91;;;16.81;70.50
4469;BME280;2247;42.666;23.292;2023-05-16T08:06:45;93870.84;;;16.98;70.48
4469;BME280;2247;42.666;23.292;2023-05-16T08:09:12;93850.84;;;16.91;70.71
4469;BME280;2247;42.666;23.292;2023-05-16T08:11:40;93860.38;;;16.92;70.43
4469;BME280;2247;42.666;23.292;2023-05-16T08:14:11;93859.41;;;16.97;70.57
4469;BME280;2247;42.666;23.292;2023-05-16T08:16:41;93860.19;;;16.98;70.82
4469;BME280;2247;42.666;23.292;2023-05-16T08:19:16;93836.34;;;17.01;70.97
4469;BME280;2247;42.666;23.292;2023-05-16T08:21:48;93814.47;;;16.96;71.42
4469;BME280;2247;42.666;23.292;2023-05-16T08:24:17;93865.78;;;17.05;70.38
4469;BME280;2247;42.666;23.292;2023-05-16T08:26:46;93848.50;;;17.11;69.91
4469;BME280;2247;42.666;23.292;2023-05-16T08:29:22;93842.72;;;17.09;69.36
4469;BME280;2247;42.666;23.292;2023-05-16T08:31:54;93876.31;;;17.22;68.73
4469;BME280;2247;42.666;23.292;2023-05-16T08:34:29;93869.34;;;17.29;68.79
4469;BME280;2247;42.666;23.292;2023-05-16T08:36:59;93827.22;;;17.11;68.36
4469;BME280;2247;42.666;23.292;2023-05-16T08:39:26;93806.44;;;17.25;67.96
4469;BME280;2247;42.666;23.292;2023-05-16T08:41:55;93855.34;;;17.41;67.90
4469;BME280;2247;42.666;23.292;2023-05-16T08:44:23;93848.50;;;17.52;67.38
4469;BME280;2247;42.666;23.292;2023-05-16T08:46:52;93847.84;;;17.55;66.50
4469;BME280;2247;42.666;23.292;2023-05-16T08:49:20;93899.88;;;17.61;66.45
4469;BME280;2247;42.666;23.292;2023-05-16T08:51:51;93774.56;;;17.49;65.91
4469;BME280;2247;42.666;23.292;2023-05-16T08:54:22;93812.53;;;17.79;65.75
4469;BME280;2247;42.666;23.292;2023-05-16T08:56:50;93841.22;;;17.94;65.47
4469;BME280;2247;42.666;23.292;2023-05-16T08:59:19;93851.03;;;18.02;65.28
4469;BME280;2247;42.666;23.292;2023-05-16T09:01:46;93862.72;;;18.10;65.52
4469;BME280;2247;42.666;23.292;2023-05-16T09:04:13;93837.25;;;18.13;65.20
4469;BME280;2247;42.666;23.292;2023-05-16T09:06:41;93832.72;;;18.25;64.59
4469;BME280;2247;42.666;23.292;2023-05-16T09:09:09;93838.94;;;18.29;64.98
4469;BME280;2247;42.666;23.292;2023-05-16T09:11:37;93840.59;;;18.34;64.80
4469;BME280;2247;42.666;23.292;2023-05-16T09:14:04;93828.28;;;18.41;64.22
4469;BME280;2247;42.666;23.292;2023-05-16T09:16:31;93818.38;;;18.54;63.91
4469;BME280;2247;42.666;23.292;2023-05-16T09:18:59;93832.72;;;18.49;63.94
4469;BME280;2247;42.666;23.292;2023-05-16T09:21:29;93848.88;;;18.53;64.01
4469;BME280;2247;42.666;23.292;2023-05-16T09:24:01;93800.13;;;18.20;63.90
4469;BME280;2247;42.666;23.292;2023-05-16T09:26:31;93818.72;;;18.40;63.19
4469;BME280;2247;42.666;23.292;2023-05-16T09:28:58;93833.19;;;18.52;63.52
4469;BME280;2247;42.666;23.292;2023-05-16T09:31:27;93807.72;;;18.30;63.88
4469;BME280;2247;42.666;23.292;2023-05-16T09:34:00;93841.53;;;18.50;64.07
4469;BME280;2247;42.666;23.292;2023-05-16T09:36:27;93820.75;;;18.56;64.22
4469;BME280;2247;42.666;23.292;2023-05-16T09:38:55;93779.38;;;18.25;64.59
4469;BME280;2247;42.666;23.292;2023-05-16T09:41:21;93835.41;;;18.62;64.43
4469;BME280;2247;42.666;23.292;2023-05-16T09:43:50;93814.06;;;18.62;64.34
4469;BME280;2247;42.666;23.292;2023-05-16T09:46:17;93810.50;;;18.70;64.16
4469;BME280;2247;42.666;23.292;2023-05-16T09:48:45;93803.63;;;18.69;64.56
4469;BME280;2247;42.666;23.292;2023-05-16T09:51:13;93817.16;;;18.88;64.29
4469;BME280;2247;42.666;23.292;2023-05-16T09:53:40;93820.84;;;18.83;64.25
4469;BME280;2247;42.666;23.292;2023-05-16T09:56:10;93811.41;;;18.62;64.22
4469;BME280;2247;42.666;23.292;2023-05-16T09:58:39;93823.97;;;18.73;64.62
4469;BME280;2247;42.666;23.292;2023-05-16T10:01:09;93817.66;;;18.66;64.55
4469;BME280;2247;42.666;23.292;2023-05-16T10:03:38;93831.88;;;18.70;64.77
4469;BME280;2247;42.666;23.292;2023-05-16T10:06:07;93821.19;;;18.70;65.32
4469;BME280;2247;42.666;23.292;2023-05-16T10:08:35;93818.28;;;18.75;64.94
4469;BME280;2247;42.666;23.292;2023-05-16T10:11:03;93829.66;;;18.72;64.48
4469;BME280;2247;42.666;23.292;2023-05-16T10:13:33;93811.84;;;18.64;64.56
4469;BME280;2247;42.666;23.292;2023-05-16T10:16:03;93814.63;;;18.67;64.64
4469;BME280;2247;42.666;23.292;2023-05-16T10:18:34;93823.06;;;18.81;64.39
4469;BME280;2247;42.666;23.292;2023-05-16T10:21:04;93826.50;;;18.94;64.33
4469;BME280;2247;42.666;23.292;2023-05-16T10:23:32;93838.72;;;18.95;64.19
4469;BME280;2247;42.666;23.292;2023-05-16T10:26:02;93822.59;;;19.04;63.90
4469;BME280;2247;42.666;23.292;2023-05-16T10:28:30;93833.47;;;19.11;63.46
4469;BME280;2247;42.666;23.292;2023-05-16T10:30:58;93824.25;;;19.08;63.37
4469;BME280;2247;42.666;23.292;2023-05-16T10:33:26;93824.69;;;19.10;63.25
4469;BME280;2247;42.666;23.292;2023-05-16T10:35:55;93811.78;;;19.12;63.05
4469;BME280;2247;42.666;23.292;2023-05-16T10:38:22;93820.91;;;19.11;63.34
4469;BME280;2247;42.666;23.292;2023-05-16T10:40:50;93805.69;;;19.00;64.00
4469;BME280;2247;42.666;23.292;2023-05-16T10:43:25;93812.38;;;18.94;64.04
4469;BME280;2247;42.666;23.292;2023-05-16T10:45:56;93779.78;;;18.88;64.44
4469;BME280;2247;42.666;23.292;2023-05-16T10:48:28;93784.56;;;18.95;64.35
4469;BME280;2247;42.666;23.292;2023-05-16T10:50:57;93774.75;;;18.99;64.35
4469;BME280;2247;42.666;23.292;2023-05-16T10:53:29;93778.16;;;19.11;63.90
4469;BME280;2247;42.666;23.292;2023-05-16T10:56:07;93782.06;;;19.14;63.83
4469;BME280;2247;42.666;23.292;2023-05-16T10:58:40;93789.03;;;19.18;62.83
4469;BME280;2247;42.666;23.292;2023-05-16T11:01:14;93768.50;;;19.07;63.57
4469;BME280;2247;42.666;23.292;2023-05-16T11:04:00;93777.91;;;19.16;62.99
4469;BME280;2247;42.666;23.292;2023-05-16T11:06:29;93798.28;;;19.21;62.80
4469;BME280;2247;42.666;23.292;2023-05-16T11:09:17;93802.41;;;19.18;63.53
4469;BME280;2247;42.666;23.292;2023-05-16T11:11:51;93812.63;;;19.16;63.08
4469;BME280;2247;42.666;23.292;2023-05-16T11:14:20;93812.88;;;19.11;63.09
4469;BME280;2247;42.666;23.292;2023-05-16T11:16:49;93823.88;;;19.22;63.22
4469;BME280;2247;42.666;23.292;2023-05-16T11:19:31;93827.97;;;19.32;62.61
4469;BME280;2247;42.666;23.292;2023-05-16T11:22:11;93831.38;;;19.44;62.42
4469;BME280;2247;42.666;23.292;2023-05-16T11:24:49;93823.00;;;19.46;62.35
4469;BME280;2247;42.666;23.292;2023-05-16T11:27:21;93818.16;;;19.48;62.03
4469;BME280;2247;42.666;23.292;2023-05-16T11:29:48;93820.91;;;19.51;61.94
4469;BME280;2247;42.666;23.292;2023-05-16T11:32:18;93799.88;;;19.50;61.50
4469;BME280;2247;42.666;23.292;2023-05-16T11:34:47;93825.34;;;19.59;61.25
4469;BME280;2247;42.666;23.292;2023-05-16T11:37:16;93808.66;;;19.50;61.86
4469;BME280;2247;42.666;23.292;2023-05-16T11:39:44;93800.75;;;19.54;61.42
4469;BME280;2247;42.666;23.292;2023-05-16T11:42:11;93817.84;;;19.65;61.38
4469;BME280;2247;42.666;23.292;2023-05-16T11:44:38;93808.31;;;19.52;61.39
4469;BME280;2247;42.666;23.292;2023-05-16T11:47:05;93816.75;;;19.82;61.50
4469;BME280;2247;42.666;23.292;2023-05-16T11:49:33;93790.81;;;19.82;61.61
4469;BME280;2247;42.666;23.292;2023-05-16T11:52:01;93781.91;;;19.78;61.77
4469;BME280;2247;42.666;23.292;2023-05-16T11:54:29;93802.47;;;20.05;61.38
4469;BME280;2247;42.666;23.292;2023-05-16T11:56:59;93815.75;;;20.02;61.68
4469;BME280;2247;42.666;23.292;2023-05-16T11:59:26;93795.03;;;19.99;61.87
4469;BME280;2247;42.666;23.292;2023-05-16T12:01:53;93799.28;;;20.16;61.56
4469;BME280;2247;42.666;23.292;2023-05-16T12:04:20;93780.78;;;20.26;61.06
4469;BME280;2247;42.666;23.292;2023-05-16T12:07:00;93766.88;;;20.33;61.55
4469;BME280;2247;42.666;23.292;2023-05-16T12:09:29;93774.78;;;20.45;60.76
4469;BME280;2247;42.666;23.292;2023-05-16T12:11:57;93758.88;;;20.52;60.53
4469;BME280;2247;42.666;23.292;2023-05-16T12:14:24;93772.84;;;20.61;60.93
4469;BME280;2247;42.666;23.292;2023-05-16T12:16:54;93748.97;;;20.53;60.79
4469;BME280;2247;42.666;23.292;2023-05-16T12:19:22;93762.69;;;20.51;59.86
4469;BME280;2247;42.666;23.292;2023-05-16T12:21:52;93730.06;;;20.30;60.36
4469;BME280;2247;42.666;23.292;2023-05-16T12:24:20;93768.09;;;20.70;60.20
4469;BME280;2247;42.666;23.292;2023-05-16T12:26:52;93744.41;;;20.72;60.44
4469;BME280;2247;42.666;23.292;2023-05-16T12:29:22;93741.19;;;20.82;60.21
4469;BME280;2247;42.666;23.292;2023-05-16T12:31:52;93726.38;;;20.89;59.62
4469;BME280;2247;42.666;23.292;2023-05-16T12:34:27;93763.41;;;21.02;59.86
4469;BME280;2247;42.666;23.292;2023-05-16T12:36:54;93762.03;;;21.08;59.72
4469;BME280;2247;42.666;23.292;2023-05-16T12:39:21;93768.56;;;21.11;59.98
4469;BME280;2247;42.666;23.292;2023-05-16T12:41:50;93712.19;;;20.69;59.95
4469;BME280;2247;42.666;23.292;2023-05-16T12:44:18;93762.56;;;20.98;60.65
4469;BME280;2247;42.666;23.292;2023-05-16T12:46:46;93772.31;;;21.06;59.42
4469;BME280;2247;42.666;23.292;2023-05-16T12:49:14;93769.75;;;20.94;59.85
4469;BME280;2247;42.666;23.292;2023-05-16T12:51:48;93748.03;;;20.80;60.12
4469;BME280;2247;42.666;23.292;2023-05-16T12:54:15;93776.53;;;20.88;60.37
4469;BME280;2247;42.666;23.292;2023-05-16T12:56:42;93758.25;;;20.74;60.39
4469;BME280;2247;42.666;23.292;2023-05-16T12:59:11;93771.06;;;20.84;60.58
4469;BME280;2247;42.666;23.292;2023-05-16T13:01:38;93761.66;;;20.75;60.08
4469;BME280;2247;42.666;23.292;2023-05-16T13:04:06;93780.00;;;20.73;60.37
4469;BME280;2247;42.666;23.292;2023-05-16T13:06:38;93787.59;;;20.71;60.53
4469;BME280;2247;42.666;23.292;2023-05-16T13:09:06;93786.75;;;20.67;60.70
4469;BME280;2247;42.666;23.292;2023-05-16T13:11:33;93784.44;;;20.65;61.26
4469;BME280;2247;42.666;23.292;2023-05-16T13:14:00;93782.78;;;20.61;62.26
4469;BME280;2247;42.666;23.292;2023-05-16T13:16:28;93782.19;;;20.67;61.79
4469;BME280;2247;42.666;23.292;2023-05-16T13:18:55;93783.56;;;20.61;62.15
4469;BME280;2247;42.666;23.292;2023-05-16T13:21:23;93778.81;;;20.55;63.15
4469;BME280;2247;42.666;23.292;2023-05-16T13:23:52;93777.88;;;20.47;63.21
4469;BME280;2247;42.666;23.292;2023-05-16T13:26:19;93788.50;;;20.43;63.49
4469;BME280;2247;42.666;23.292;2023-05-16T13:28:46;93785.84;;;20.43;63.42
4469;BME280;2247;42.666;23.292;2023-05-16T13:31:17;93787.06;;;20.46;63.73